Time;durP1;ratioP1;P1;durP2;ratioP2;P2;SDS_P1;SDS_P2;PMS_P1;PMS_P2;Temp;Humidity;BMP_temperature;BMP_pressure;BME280_temperature;BME280_humidity;BME280_pressure;Samples;Min_cycle;Max_cycle;Signal;HPM_P1;HPM_P2
2021/03/11 00:06:12;;;;;;;42.5;20.3;;;;;;;-6.01;78.47461;99080.98;;;;
2021/03/11 00:16:09;;;;;;;37.2;21.3;;;;;;;-6;79.71289;99040.63;;;;
2021/03/11 00:26:06;;;;;;;26.6;19.5;;;;;;;-5.99;78.87012;99040.42;;;;
2021/03/11 00:36:02;;;;;;;37.5;20.1;;;;;;;-6.18;79.25781;99036.63;;;;
2021/03/11 00:45:59;;;;;;;33.2;18.5;;;;;;;-6.28;78.82617;99015.17;;;;
2021/03/11 00:55:56;;;;;;;25.3;15.6;;;;;;;-6.35;78.69336;99014.3;;;;
2021/03/11 01:05:53;;;;;;;20.3;15.6;;;;;;;-6.44;79.34961;99007.58;;;;
2021/03/11 01:15:53;;;;;;;29.8;18.7;;;;;;;-6.62;79.07617;99015.06;;;;
2021/03/11 01:25:46;;;;;;;28.4;14.4;;;;;;;-6.73;79.47852;99005.08;;;;
2021/03/11 01:35:43;;;;;;;28;15;;;;;;;-6.71;80.75879;98997.86;;;;
2021/03/11 01:45:40;;;;;;;21.3;11.8;;;;;;;-6.48;80.72754;98977.48;;;;
2021/03/11 01:55:36;;;;;;;23.5;12.5;;;;;;;-6.33;79.33789;98959.88;;;;
2021/03/11 02:05:33;;;;;;;18.9;12.1;;;;;;;-6.42;79.39648;98953.13;;;;
2021/03/11 02:15:30;;;;;;;33.9;20;;;;;;;-6.64;80.86816;98946.31;;;;
2021/03/11 02:25:26;;;;;;;36.1;22.5;;;;;;;-6.85;82.85059;98938.46;;;;
2021/03/11 02:35:23;;;;;;;42.6;24.9;;;;;;;-7.07;82.79688;98924.55;;;;
2021/03/11 02:45:20;;;;;;;40.2;24.9;;;;;;;-7.23;83.6416;98917.76;;;;
2021/03/11 02:55:16;;;;;;;26;13;;;;;;;-7.15;82.64063;98901.12;;;;
2021/03/11 03:05:13;;;;;;;18.9;8.6;;;;;;;-6.65;81.24609;98874.73;;;;
2021/03/11 03:15:10;;;;;;;24.3;13.2;;;;;;;-6.14;78.88477;98870.02;;;;
2021/03/11 03:25:06;;;;;;;22.8;12.2;;;;;;;-6.04;78.78418;98861.81;;;;
2021/03/11 03:35:03;;;;;;;19.2;12.5;;;;;;;-5.86;77.09277;98864.69;;;;
2021/03/11 03:45:00;;;;;;;29.2;13.5;;;;;;;-5.95;77.16113;98825.7;;;;
2021/03/11 03:54:57;;;;;;;18.7;12;;;;;;;-5.96;76.68359;98818.83;;;;
2021/03/11 04:04:55;;;;;;;24;14.2;;;;;;;-5.86;75.91992;98822.7;;;;
2021/03/11 04:14:50;;;;;;;20.7;11.7;;;;;;;-5.91;76.03125;98833;;;;
2021/03/11 04:24:47;;;;;;;16.5;10.2;;;;;;;-6.03;76.48438;98838.98;;;;
2021/03/11 04:34:44;;;;;;;26;18.8;;;;;;;-6.2;77.51855;98834.08;;;;
2021/03/11 04:44:40;;;;;;;39.9;23.8;;;;;;;-6.48;79.98926;98822.01;;;;
2021/03/11 04:54:37;;;;;;;34.9;19.7;;;;;;;-6.63;80.55762;98795.94;;;;
2021/03/11 05:04:34;;;;;;;36.2;24.1;;;;;;;-6.71;80.7168;98791.66;;;;
2021/03/11 05:14:31;;;;;;;47.9;25.2;;;;;;;-6.88;82.93164;98802.61;;;;
2021/03/11 05:24:27;;;;;;;35.5;21.2;;;;;;;-6.84;83.18652;98796;;;;
2021/03/11 05:34:24;;;;;;;33;20.6;;;;;;;-6.67;83.56836;98785.03;;;;
2021/03/11 05:44:21;;;;;;;39.4;20.1;;;;;;;-6.4;83.12207;98756.32;;;;
2021/03/11 05:54:17;;;;;;;42.9;22.3;;;;;;;-6.05;82.79199;98750;;;;
2021/03/11 06:04:14;;;;;;;31;22.4;;;;;;;-5.68;83.39746;98736.32;;;;
2021/03/11 06:14:11;;;;;;;41.6;24.6;;;;;;;-5.43;83.90918;98735.73;;;;
2021/03/11 06:24:08;;;;;;;45.1;29.2;;;;;;;-4.9;81.41992;98720.75;;;;
2021/03/11 06:34:05;;;;;;;35.4;23.7;;;;;;;-4.32;79.87988;98722.39;;;;
2021/03/11 06:44:02;;;;;;;44.8;26.8;;;;;;;-3.88;79.17676;98683.88;;;;
2021/03/11 06:54:00;;;;;;;35.9;24.9;;;;;;;-3.25;77.75586;98689.89;;;;
2021/03/11 07:03:58;;;;;;;32.6;22.2;;;;;;;-2.53;73.0293;98673.31;;;;
2021/03/11 07:13:56;;;;;;;34.4;22.2;;;;;;;-1.94;67.54199;98663.84;;;;
2021/03/11 07:23:50;;;;;;;45.6;35.6;;;;;;;-1.33;71.03809;98653.72;;;;
2021/03/11 07:33:47;;;;;;;51.3;33.5;;;;;;;-0.84;70.21777;98649.8;;;;
2021/03/11 07:43:45;;;;;;;42.4;30.1;;;;;;;-0.01;68.04883;98638.7;;;;
2021/03/11 07:53:42;;;;;;;42.9;32.2;;;;;;;0.54;65.16211;98632.73;;;;
2021/03/11 08:03:40;;;;;;;33.3;26.5;;;;;;;0.98;64.32227;98624.64;;;;
2021/03/11 08:13:38;;;;;;;40.2;29.8;;;;;;;1.5;60.57324;98635.66;;;;
2021/03/11 08:23:35;;;;;;;31.2;23.8;;;;;;;1.69;58.84473;98601.63;;;;
2021/03/11 08:33:33;;;;;;;28.5;25;;;;;;;2.17;57.4873;98590.13;;;;
2021/03/11 08:43:31;;;;;;;38.2;27.1;;;;;;;2.35;57.48926;98581.77;;;;
2021/03/11 08:53:29;;;;;;;39.5;21.6;;;;;;;3.05;54.77148;98559.33;;;;
2021/03/11 09:03:27;;;;;;;23.4;17.9;;;;;;;3.16;50.42969;98541.53;;;;
2021/03/11 09:13:25;;;;;;;25.5;17.5;;;;;;;3.91;48.88379;98520.39;;;;
2021/03/11 09:23:23;;;;;;;26.7;17.1;;;;;;;4.37;47.39941;98502.48;;;;
2021/03/11 09:33:22;;;;;;;17.4;12.9;;;;;;;4.93;45.60742;98495.14;;;;
2021/03/11 09:43:20;;;;;;;19.9;15.8;;;;;;;4.83;41.95313;98487.16;;;;
2021/03/11 09:53:17;;;;;;;24.9;15.3;;;;;;;5.18;42.45996;98469.39;;;;
2021/03/11 10:03:15;;;;;;;18;12.7;;;;;;;5.75;42.53906;98424.13;;;;
2021/03/11 10:13:13;;;;;;;16.5;11.9;;;;;;;6.21;37.1875;98395.13;;;;
2021/03/11 10:23:16;;;;;;;19.2;14.3;;;;;;;6.02;36.29004;98362.93;;;;
2021/03/11 10:33:10;;;;;;;16.1;11.9;;;;;;;6.83;37.63672;98335.2;;;;
2021/03/11 10:43:08;;;;;;;23.1;14.3;;;;;;;6.96;36.68555;98333.67;;;;
2021/03/11 10:53:07;;;;;;;16.9;11.8;;;;;;;6.81;36.71875;98302.53;;;;
2021/03/11 11:03:05;;;;;;;17.3;14.6;;;;;;;7.16;37.34961;98285.13;;;;
2021/03/11 11:13:03;;;;;;;14;12.1;;;;;;;7.45;38.19043;98263.48;;;;
2021/03/11 11:23:02;;;;;;;14.7;12.2;;;;;;;7.58;38.59863;98247.41;;;;
2021/03/11 11:33:00;;;;;;;16.9;12.6;;;;;;;7.62;36.68555;98218.13;;;;
2021/03/11 11:42:59;;;;;;;13.5;10.6;;;;;;;7.62;36.88867;98228.05;;;;
2021/03/11 11:52:57;;;;;;;13.9;12.5;;;;;;;7.82;36.86133;98203.52;;;;
2021/03/11 12:02:56;;;;;;;15.7;10.7;;;;;;;7.45;36.52441;98191.09;;;;
2021/03/11 12:12:55;;;;;;;11.6;8.1;;;;;;;6.84;35.19336;98168.02;;;;
2021/03/11 12:22:55;;;;;;;12.8;8.6;;;;;;;6.29;36.3125;98142.92;;;;
2021/03/11 12:32:51;;;;;;;19.6;16.8;;;;;;;6.08;36.89453;98153.12;;;;
2021/03/11 12:42:49;;;;;;;11.5;7.9;;;;;;;5.65;42.90039;98180.13;;;;
2021/03/11 12:52:48;;;;;;;10.6;8.2;;;;;;;5.03;52.7041;98184.52;;;;
2021/03/11 13:02:46;;;;;;;10.6;8.2;;;;;;;4.53;60.19922;98151.83;;;;
2021/03/11 13:12:44;;;;;;;13.7;7.2;;;;;;;4.56;59.74316;98131.78;;;;
2021/03/11 13:22:42;;;;;;;14.2;7.3;;;;;;;4.03;63.72363;98128.95;;;;
2021/03/11 13:32:40;;;;;;;15.1;10.5;;;;;;;3.94;60.88574;98141.28;;;;
2021/03/11 13:42:38;;;;;;;11.3;10.1;;;;;;;3.81;66.44141;98093.92;;;;
2021/03/11 13:52:36;;;;;;;11.7;9;;;;;;;3.99;63.77246;98055.92;;;;
2021/03/11 14:02:34;;;;;;;15.1;10.7;;;;;;;3.85;64.53223;98030.97;;;;
2021/03/11 14:12:32;;;;;;;17.1;12.4;;;;;;;3.77;64.74219;97985.47;;;;
2021/03/11 14:22:30;;;;;;;18.3;11.9;;;;;;;3.57;67.86328;97986.41;;;;
2021/03/11 14:32:28;;;;;;;18;12.3;;;;;;;3.63;68.70605;97955.19;;;;
2021/03/11 14:42:26;;;;;;;22.3;16;;;;;;;3.72;67.89941;97914.34;;;;
2021/03/11 14:52:24;;;;;;;15.9;13.4;;;;;;;3.62;68.89551;97917.09;;;;
2021/03/11 15:02:22;;;;;;;22.3;14.8;;;;;;;3.6;68.89063;97875.83;;;;
2021/03/11 15:12:20;;;;;;;28;17.7;;;;;;;3.57;68.375;97841.75;;;;
2021/03/11 15:22:18;;;;;;;17.9;15.1;;;;;;;3.52;69.22266;97799.96;;;;
2021/03/11 15:32:16;;;;;;;22;15.8;;;;;;;3.38;70.13672;97786.51;;;;
2021/03/11 15:42:14;;;;;;;21.4;14.7;;;;;;;3.46;68.74707;97774.45;;;;
2021/03/11 15:52:12;;;;;;;17.7;15.7;;;;;;;3.42;68.36328;97790.2;;;;
2021/03/11 16:02:10;;;;;;;28.7;24;;;;;;;3.34;68.18262;97797.98;;;;
2021/03/11 16:12:10;;;;;;;30.3;24.8;;;;;;;3.24;70.3125;97790.09;;;;
2021/03/11 16:22:05;;;;;;;51.5;36.7;;;;;;;3.2;69.77246;97802.37;;;;
2021/03/11 16:32:03;;;;;;;35.6;30.4;;;;;;;3.1;74.30762;97783.81;;;;
2021/03/11 16:42:01;;;;;;;26.7;21.9;;;;;;;2.97;74.94238;97764.77;;;;
2021/03/11 16:51:59;;;;;;;29.6;24.1;;;;;;;2.99;77.19629;97751.96;;;;
2021/03/11 17:01:57;;;;;;;24.6;19.3;;;;;;;3.07;76.89844;97725.81;;;;
2021/03/11 17:11:57;;;;;;;20.3;16.7;;;;;;;3.11;76.5957;97722.33;;;;
2021/03/11 17:21:56;;;;;;;18.8;16.8;;;;;;;3.27;76.02539;97693.67;;;;
2021/03/11 17:31:51;;;;;;;23.4;17.9;;;;;;;3.33;77.86719;97600.13;;;;
2021/03/11 17:41:49;;;;;;;21.4;15.6;;;;;;;3.52;76.46777;97690.75;;;;
2021/03/11 17:51:47;;;;;;;18.6;16.3;;;;;;;3.65;76.66992;97710.58;;;;
2021/03/11 18:01:45;;;;;;;17.6;12.9;;;;;;;3.87;77.87598;97682.34;;;;
2021/03/11 18:11:43;;;;;;;17.8;14.3;;;;;;;4.03;78.45996;97669.59;;;;
2021/03/11 18:21:41;;;;;;;14.1;12.2;;;;;;;4.15;78.3584;97674.5;;;;
2021/03/11 18:31:39;;;;;;;17.1;12.5;;;;;;;4.19;78.37793;97646.98;;;;
2021/03/11 18:41:37;;;;;;;19.2;13.9;;;;;;;4.27;77.53711;97642.88;;;;
2021/03/11 18:51:35;;;;;;;16;12.1;;;;;;;4.33;77.23633;97639.05;;;;
2021/03/11 19:01:33;;;;;;;15;11.7;;;;;;;4.59;76.12598;97624.2;;;;
2021/03/11 19:11:32;;;;;;;16.5;13.2;;;;;;;4.64;75.45605;97610.8;;;;
2021/03/11 19:21:29;;;;;;;21;14.1;;;;;;;4.66;75.30176;97615.82;;;;
2021/03/11 19:31:27;;;;;;;15.2;12.1;;;;;;;4.71;75.06641;97589.86;;;;
2021/03/11 19:41:25;;;;;;;12.4;10;;;;;;;4.93;73.06543;97573.16;;;;
2021/03/11 19:51:23;;;;;;;11.4;9.2;;;;;;;5.07;72.22949;97541.92;;;;
2021/03/11 20:01:21;;;;;;;12.5;9.6;;;;;;;4.99;71.87207;97484.69;;;;
2021/03/11 20:11:19;;;;;;;13.7;10.1;;;;;;;4.88;71.76367;97501.2;;;;
2021/03/11 20:21:17;;;;;;;9.7;8.3;;;;;;;5.23;70.64844;97462.3;;;;
2021/03/11 20:31:15;;;;;;;13.5;10.9;;;;;;;4.95;71.59668;97456.2;;;;
2021/03/11 20:41:13;;;;;;;14.9;10;;;;;;;4.92;71.29004;97451.47;;;;
2021/03/11 20:51:11;;;;;;;16.8;12.2;;;;;;;4.78;72.11328;97437.34;;;;
2021/03/11 21:01:10;;;;;;;11.9;10.7;;;;;;;5;71.9502;97394.67;;;;
2021/03/11 21:11:08;;;;;;;13.5;10.5;;;;;;;5.11;72.04785;97372;;;;
2021/03/11 21:21:06;;;;;;;16.5;11.1;;;;;;;5.23;71.76563;97390.97;;;;
2021/03/11 21:31:04;;;;;;;14.9;8.9;;;;;;;5.03;72.04688;97373.5;;;;
2021/03/11 21:41:02;;;;;;;17.6;13.5;;;;;;;4.74;72.94531;97343.73;;;;
2021/03/11 21:51:00;;;;;;;21.8;15.1;;;;;;;4.62;73.64746;97354.11;;;;
2021/03/11 22:00:58;;;;;;;32.5;21.8;;;;;;;4.44;74.9082;97366.48;;;;
2021/03/11 22:10:56;;;;;;;24;15.8;;;;;;;4.59;75.33594;97352.05;;;;
2021/03/11 22:20:57;;;;;;;21.5;17.4;;;;;;;4.87;75.5957;97342.11;;;;
2021/03/11 22:30:53;;;;;;;10;7.7;;;;;;;5.39;75.76465;97352.12;;;;
2021/03/11 22:40:51;;;;;;;12.3;8.3;;;;;;;6.06;73.72559;97320.77;;;;
2021/03/11 22:50:49;;;;;;;11;7.6;;;;;;;6.3;72.87207;97324.93;;;;
2021/03/11 23:00:47;;;;;;;16.6;8.9;;;;;;;6.43;72.48145;97324.02;;;;
2021/03/11 23:10:45;;;;;;;11.4;7.9;;;;;;;6.56;71.96484;97326.56;;;;
2021/03/11 23:20:44;;;;;;;12.5;9.7;;;;;;;6.65;71.44238;97313.21;;;;
2021/03/11 23:30:42;;;;;;;15;9;;;;;;;6.5;71.51758;97305.61;;;;
2021/03/11 23:40:40;;;;;;;11.3;8.6;;;;;;;6.39;72.05957;97352.49;;;;
2021/03/11 23:50:39;;;;;;;12.1;7.6;;;;;;;6.42;72.17578;97373.3;;;;
